Lushi, China
Current Conditions -  °F | °C
As of 7:00 PM on Thursday 23 Oct 2014 (Local Time) from ZLXY Reporting Station
Haze Haze  
Wind Chill: 55°   Ceiling: Unl
Heat Index: 55°   Visibility: 3mi
Dew Point: 52°   Wind: 0mph
Humidity: 88%   Direction: NA
Pressure: 29.94"   Gusts: NA
Location:  34.05°N, 111.03°E
Report Text: ZLXY 231100Z 00000MPS 5000 BR NSC 13/11 Q1014 NOSIG
Loading
Personal Weather Stations






























Interactive Weather Map
Tropical Storm Tracking
New forecast layout! Learn more

10-Day Weather Forecast

Advertisements
Track Severe Weather on mobile